createdAt,value
2022-12-05T00:01:00.171Z,2.06
2022-12-05T00:03:27.071Z,2.09
2022-12-05T00:05:53.500Z,2.06
2022-12-05T00:08:19.956Z,2.09
2022-12-05T00:10:46.369Z,2.05
2022-12-05T00:13:12.748Z,2.03
2022-12-05T00:15:40.656Z,2.03
2022-12-05T00:18:07.187Z,1.98
2022-12-05T00:20:33.907Z,2.03
2022-12-05T00:23:00.329Z,2.01
2022-12-05T00:25:26.840Z,1.93
2022-12-05T00:27:53.246Z,1.89
2022-12-05T00:30:19.658Z,1.89
2022-12-05T00:32:46.036Z,1.88
2022-12-05T00:35:12.476Z,1.89
2022-12-05T00:37:38.865Z,1.90
2022-12-05T00:40:06.107Z,1.95
2022-12-05T00:42:32.532Z,1.97
2022-12-05T00:44:58.923Z,1.86
2022-12-05T00:47:25.301Z,1.94
2022-12-05T00:49:51.848Z,1.96
2022-12-05T00:52:18.330Z,1.93
2022-12-05T00:54:44.735Z,1.92
2022-12-05T00:57:11.145Z,1.93
2022-12-05T00:59:37.580Z,1.93
2022-12-05T01:02:04.005Z,1.95
2022-12-05T01:04:30.423Z,1.93
2022-12-05T01:06:58.572Z,1.90
2022-12-05T01:09:25.620Z,1.86
2022-12-05T01:11:52.497Z,1.84
2022-12-05T01:14:21.353Z,1.88
2022-12-05T01:16:49.336Z,1.88
2022-12-05T01:19:22.277Z,1.87
2022-12-05T01:21:49.206Z,1.91
2022-12-05T01:24:18.258Z,1.88
2022-12-05T01:26:45.939Z,1.87
2022-12-05T01:29:14.832Z,1.90
2022-12-05T01:31:41.921Z,1.90
2022-12-05T01:34:12.166Z,1.83
2022-12-05T01:36:39.350Z,1.84
2022-12-05T01:39:08.003Z,1.77
2022-12-05T01:41:37.631Z,1.78
2022-12-05T01:44:28.720Z,1.72
2022-12-05T01:46:55.983Z,1.75
2022-12-05T01:49:31.184Z,1.77
2022-12-05T01:52:20.282Z,1.70
2022-12-05T01:54:48.452Z,1.70
2022-12-05T01:57:15.503Z,1.69
2022-12-05T01:59:45.999Z,1.69
2022-12-05T02:02:13.360Z,1.68
2022-12-05T02:05:04.697Z,1.72
2022-12-05T02:07:32.680Z,1.72
2022-12-05T02:09:59.414Z,1.69
2022-12-05T02:12:26.653Z,1.68
2022-12-05T02:15:08.427Z,1.59
2022-12-05T02:17:42.758Z,1.68
2022-12-05T02:20:21.392Z,1.64
2022-12-05T02:23:00.319Z,1.65
2022-12-05T02:29:56.785Z,1.65
2022-12-05T02:33:03.454Z,1.57
2022-12-05T02:35:37.967Z,1.59
2022-12-05T02:38:17.985Z,1.59
2022-12-05T02:40:57.325Z,1.54
2022-12-05T02:43:37.499Z,1.53
2022-12-05T02:46:09.855Z,1.56
2022-12-05T02:48:38.040Z,1.57
2022-12-05T02:51:06.490Z,1.55
2022-12-05T02:53:35.407Z,1.60
2022-12-05T02:56:03.862Z,1.64
2022-12-05T02:58:48.551Z,1.66
2022-12-05T03:01:15.531Z,1.69
2022-12-05T03:03:42.273Z,1.69
2022-12-05T03:06:34.834Z,1.67
2022-12-05T03:09:05.150Z,1.68
2022-12-05T03:11:38.685Z,1.73
2022-12-05T03:14:11.278Z,1.75
2022-12-05T03:16:50.731Z,1.76
2022-12-05T03:19:36.680Z,1.77
2022-12-05T03:22:10.393Z,1.76
2022-12-05T03:24:40.225Z,1.78
2022-12-05T03:27:19.153Z,1.74
2022-12-05T03:29:56.946Z,1.61
2022-12-05T03:32:32.722Z,1.75
2022-12-05T03:35:22.703Z,1.76
2022-12-05T03:38:02.054Z,1.73
2022-12-05T03:40:52.785Z,1.72
2022-12-05T03:43:39.426Z,1.77
2022-12-05T03:46:24.581Z,1.76
2022-12-05T03:49:02.032Z,1.79
2022-12-05T03:51:34.288Z,1.85
2022-12-05T03:54:07.609Z,1.90
2022-12-05T03:56:43.852Z,1.95
2022-12-05T03:59:46.139Z,2.00
2022-12-05T04:02:24.894Z,2.00
2022-12-05T04:04:59.416Z,2.02
2022-12-05T04:07:28.883Z,2.03
2022-12-05T04:09:59.037Z,2.04
2022-12-05T04:12:30.983Z,2.04
2022-12-05T04:15:08.385Z,2.05
2022-12-05T04:17:59.364Z,1.98
2022-12-05T04:20:57.756Z,2.07
2022-12-05T04:23:25.308Z,2.10
2022-12-05T04:26:06.446Z,2.09
2022-12-05T04:28:51.595Z,2.10
2022-12-05T04:31:25.119Z,2.12
2022-12-05T04:34:05.300Z,2.13
2022-12-05T04:36:36.500Z,2.11
2022-12-05T04:39:29.193Z,2.14
2022-12-05T04:42:02.662Z,2.12
2022-12-05T04:44:40.257Z,2.14
2022-12-05T04:47:09.706Z,2.18
2022-12-05T04:49:37.538Z,2.17
2022-12-05T04:52:08.637Z,2.20
2022-12-05T04:54:41.734Z,2.15
2022-12-05T04:57:41.304Z,2.13
2022-12-05T05:00:08.527Z,2.12
2022-12-05T05:02:57.040Z,2.08
2022-12-05T05:05:23.574Z,2.07
2022-12-05T05:07:52.983Z,2.10
2022-12-05T05:10:29.318Z,2.09
2022-12-05T05:12:56.190Z,2.11
2022-12-05T05:15:22.662Z,2.09
2022-12-05T05:17:49.106Z,2.08
2022-12-05T05:20:24.362Z,2.04
2022-12-05T05:22:52.918Z,2.00
2022-12-05T05:25:19.608Z,2.00
2022-12-05T05:27:51.076Z,1.98
2022-12-05T05:30:18.046Z,1.98
2022-12-05T05:32:44.628Z,1.95
2022-12-05T05:35:11.829Z,1.97
2022-12-05T05:37:38.719Z,2.00
2022-12-05T05:40:11.386Z,2.03
2022-12-05T05:42:43.932Z,2.03
2022-12-05T05:45:11.091Z,2.05
2022-12-05T05:47:37.754Z,2.07
2022-12-05T05:50:05.248Z,2.09
2022-12-05T05:52:36.187Z,2.10
2022-12-05T05:55:05.759Z,2.12
2022-12-05T05:57:32.266Z,2.09
2022-12-05T05:59:59.106Z,2.03
2022-12-05T06:02:25.784Z,2.02
2022-12-05T06:04:52.228Z,2.03
2022-12-05T06:07:18.621Z,2.04
2022-12-05T06:09:45.038Z,2.04
2022-12-05T06:12:11.431Z,2.03
2022-12-05T06:14:37.848Z,2.01
2022-12-05T06:17:05.051Z,2.04
2022-12-05T06:19:31.467Z,2.04
2022-12-05T06:21:57.856Z,2.04
2022-12-05T06:24:24.267Z,2.05
2022-12-05T06:26:50.681Z,2.05
2022-12-05T06:29:19.606Z,2.07
2022-12-05T06:31:48.146Z,2.08
2022-12-05T06:34:14.706Z,2.07
2022-12-05T06:36:41.104Z,2.07
2022-12-05T06:39:07.510Z,1.65
2022-12-05T06:41:33.932Z,2.09
2022-12-05T06:44:02.450Z,2.10
2022-12-05T06:46:29.829Z,2.10
2022-12-05T06:48:58.151Z,2.08
2022-12-05T06:51:24.661Z,2.06
2022-12-05T06:53:51.108Z,2.12
2022-12-05T06:56:19.736Z,2.11
2022-12-05T06:58:48.780Z,2.08
2022-12-05T07:01:41.540Z,2.12
2022-12-05T07:04:13.022Z,2.13
2022-12-05T07:06:40.465Z,2.14
2022-12-05T07:09:07.196Z,2.15
2022-12-05T07:11:34.527Z,2.17
2022-12-05T07:14:07.330Z,2.20
2022-12-05T07:16:37.298Z,2.21
2022-12-05T07:19:03.970Z,2.20
2022-12-05T07:21:30.383Z,2.20
2022-12-05T07:23:56.786Z,2.16
2022-12-05T07:26:24.294Z,2.22
2022-12-05T07:28:52.103Z,2.15
2022-12-05T07:31:22.582Z,2.30
2022-12-05T07:33:50.360Z,2.32
2022-12-05T07:36:20.245Z,2.32
2022-12-05T07:38:47.055Z,2.34
2022-12-05T07:41:22.211Z,2.36
2022-12-05T07:43:50.911Z,2.37
2022-12-05T07:46:17.586Z,2.38
2022-12-05T07:48:44.049Z,2.41
2022-12-05T07:51:11.149Z,2.41
2022-12-05T07:53:38.980Z,2.42
2022-12-05T07:56:07.849Z,2.42
2022-12-05T07:58:35.670Z,2.42
2022-12-05T08:01:14.156Z,2.43
2022-12-05T08:03:41.747Z,2.44
2022-12-05T08:06:14.706Z,2.48
2022-12-05T08:08:41.828Z,2.50
2022-12-05T08:11:14.582Z,2.46
2022-12-05T08:13:41.768Z,2.47
2022-12-05T08:16:11.786Z,2.49
2022-12-05T08:18:38.747Z,2.50
2022-12-05T08:21:07.588Z,2.54
2022-12-05T08:23:35.274Z,2.55
2022-12-05T08:26:24.488Z,2.57
2022-12-05T08:28:53.476Z,2.62
2022-12-05T08:31:28.815Z,2.65
2022-12-05T08:33:59.391Z,2.67
2022-12-05T08:36:27.776Z,2.72
2022-12-05T08:38:59.125Z,2.77
2022-12-05T08:41:29.913Z,2.81
2022-12-05T08:44:03.008Z,2.87
2022-12-05T08:46:30.803Z,2.91
2022-12-05T08:48:57.392Z,2.95
2022-12-05T08:51:23.862Z,3.00
2022-12-05T08:53:50.302Z,3.03
2022-12-05T08:56:18.186Z,3.08
2022-12-05T08:58:47.645Z,3.11
2022-12-05T09:01:23.284Z,3.09
2022-12-05T09:03:49.750Z,3.12
2022-12-05T09:06:21.749Z,3.15
2022-12-05T09:08:49.405Z,3.17
2022-12-05T09:11:18.410Z,3.20
2022-12-05T09:13:46.527Z,3.24
2022-12-05T09:16:25.150Z,3.18
2022-12-05T09:18:52.279Z,3.25
2022-12-05T09:21:24.503Z,3.25
2022-12-05T09:23:51.807Z,3.24
2022-12-05T09:26:21.640Z,3.25
2022-12-05T09:28:48.079Z,3.27
2022-12-05T09:31:18.128Z,3.29
2022-12-05T09:33:45.285Z,3.27
2022-12-05T09:36:20.384Z,3.29
2022-12-05T09:38:47.327Z,3.32
2022-12-05T09:41:47.267Z,3.34
2022-12-05T09:44:45.261Z,3.39
2022-12-05T09:47:36.397Z,3.40
2022-12-05T09:50:11.970Z,3.39
2022-12-05T09:52:44.017Z,3.41
2022-12-05T09:55:20.810Z,3.43
2022-12-05T09:57:52.062Z,3.45
2022-12-05T10:00:19.355Z,3.46
2022-12-05T10:02:48.784Z,3.48
2022-12-05T10:05:28.136Z,3.47
2022-12-05T10:08:12.885Z,3.51
2022-12-05T10:10:48.208Z,3.52
2022-12-05T10:13:20.795Z,3.52
2022-12-05T10:15:57.288Z,3.54
2022-12-05T10:18:38.832Z,3.56
2022-12-05T10:21:07.942Z,3.60
2022-12-05T10:24:06.953Z,3.64
2022-12-05T10:26:52.586Z,3.70
2022-12-05T10:29:33.448Z,3.76
2022-12-05T10:32:10.254Z,3.80
2022-12-05T10:34:42.849Z,3.84
2022-12-05T10:37:20.969Z,3.90
2022-12-05T10:39:49.839Z,3.92
2022-12-05T10:42:23.641Z,3.92
2022-12-05T10:44:57.858Z,3.92
2022-12-05T10:47:24.786Z,3.89
2022-12-05T10:49:52.713Z,3.91
2022-12-05T10:52:19.653Z,3.90
2022-12-05T10:54:51.251Z,3.90
2022-12-05T10:57:22.195Z,3.95
2022-12-05T10:59:48.817Z,3.96
2022-12-05T11:02:29.343Z,3.97
2022-12-05T11:04:56.345Z,3.97
2022-12-05T11:07:45.381Z,3.98
2022-12-05T11:10:40.882Z,3.99
2022-12-05T11:13:25.349Z,3.97
2022-12-05T11:15:55.480Z,3.99
2022-12-05T11:18:25.001Z,3.98
2022-12-05T11:20:51.842Z,3.96
2022-12-05T11:23:29.809Z,3.99
2022-12-05T11:25:58.481Z,4.00
2022-12-05T11:28:34.833Z,4.00
2022-12-05T11:31:03.246Z,4.00
2022-12-05T11:33:34.958Z,4.01
2022-12-05T11:36:03.466Z,4.03
2022-12-05T11:38:32.654Z,4.01
2022-12-05T11:41:17.447Z,4.02
2022-12-05T11:43:52.925Z,4.04
2022-12-05T11:46:43.153Z,4.08
2022-12-05T11:49:46.585Z,4.12
2022-12-05T11:52:29.936Z,4.15
2022-12-05T11:55:16.800Z,4.20
2022-12-05T11:57:52.842Z,4.23
2022-12-05T12:00:47.032Z,4.28
2022-12-05T12:03:26.187Z,4.30
2022-12-05T12:06:00.948Z,4.34
2022-12-05T12:08:42.222Z,4.36
2022-12-05T12:11:36.293Z,4.43
2022-12-05T12:14:26.959Z,4.50
2022-12-05T12:17:07.122Z,4.58
2022-12-05T12:20:06.878Z,4.64
2022-12-05T12:22:47.582Z,4.65
2022-12-05T12:25:44.276Z,4.68
2022-12-05T12:28:27.214Z,4.66
2022-12-05T12:31:06.301Z,4.66
2022-12-05T12:33:54.122Z,4.68
2022-12-05T12:36:28.604Z,4.71
2022-12-05T12:39:16.855Z,4.76
2022-12-05T12:42:35.773Z,4.82
2022-12-05T12:45:25.324Z,4.81
2022-12-05T12:48:17.517Z,4.80
2022-12-05T12:50:47.171Z,4.80
2022-12-05T12:53:29.385Z,4.82
2022-12-05T12:56:10.689Z,4.83
2022-12-05T12:59:08.365Z,4.85
2022-12-05T13:01:47.954Z,4.88
2022-12-05T13:04:25.287Z,4.91
2022-12-05T13:07:06.085Z,4.95
2022-12-05T13:09:42.922Z,5.02
2022-12-05T13:12:15.284Z,5.10
2022-12-05T13:14:49.566Z,5.20
2022-12-05T13:17:20.078Z,5.28
2022-12-05T13:19:49.499Z,5.42
2022-12-05T13:22:19.561Z,5.52
2022-12-05T13:24:46.088Z,5.60
2022-12-05T13:27:21.121Z,5.67
2022-12-05T13:29:51.891Z,5.75
2022-12-05T13:32:32.424Z,5.74
2022-12-05T13:35:08.029Z,5.69
2022-12-05T13:37:54.582Z,5.66
2022-12-05T13:40:44.461Z,5.57
2022-12-05T13:43:14.880Z,5.50
2022-12-05T13:45:43.147Z,5.46
2022-12-05T13:48:20.041Z,5.41
2022-12-05T13:51:08.246Z,5.44
2022-12-05T13:53:39.325Z,5.46
2022-12-05T13:56:14.988Z,5.52
2022-12-05T13:58:52.632Z,5.59
2022-12-05T14:01:26.029Z,5.80
2022-12-05T14:03:59.341Z,6.04
2022-12-05T14:06:38.066Z,6.10
2022-12-05T14:09:16.822Z,6.06
2022-12-05T14:12:12.141Z,6.04
2022-12-05T14:14:57.101Z,6.03
2022-12-05T14:17:28.107Z,5.97
2022-12-05T14:20:18.863Z,5.87
2022-12-05T14:23:11.721Z,5.65
2022-12-05T14:26:08.998Z,5.56
2022-12-05T14:28:35.961Z,5.47
2022-12-05T14:31:50.482Z,5.41
2022-12-05T14:34:25.808Z,5.34
2022-12-05T14:37:32.004Z,5.24
2022-12-05T14:40:16.805Z,5.18
2022-12-05T14:42:54.032Z,5.11
2022-12-05T14:45:20.573Z,5.03
2022-12-05T14:47:56.577Z,4.98
2022-12-05T14:50:41.020Z,4.91
2022-12-05T14:53:15.529Z,4.85
2022-12-05T14:55:44.758Z,4.76
2022-12-05T14:58:20.109Z,4.68
2022-12-05T15:00:57.042Z,4.65
2022-12-05T15:03:30.243Z,4.55
2022-12-05T15:06:03.262Z,4.52
2022-12-05T15:08:34.535Z,4.49
2022-12-05T15:11:01.570Z,4.44
2022-12-05T15:13:29.832Z,4.41
2022-12-05T15:16:06.411Z,4.39
2022-12-05T15:18:42.765Z,4.25
2022-12-05T15:21:26.495Z,4.35
2022-12-05T15:23:59.190Z,4.34
2022-12-05T15:26:47.952Z,4.29
2022-12-05T15:29:22.983Z,4.31
2022-12-05T15:31:52.101Z,4.30
2022-12-05T15:34:37.303Z,4.28
2022-12-05T15:37:15.732Z,4.27
2022-12-05T15:40:00.513Z,4.08
2022-12-05T15:42:35.913Z,4.23
2022-12-05T15:45:11.915Z,4.23
2022-12-05T15:47:38.889Z,4.20
2022-12-05T15:50:06.088Z,4.24
2022-12-05T15:52:41.847Z,4.25
2022-12-05T15:55:14.461Z,4.19
2022-12-05T15:57:49.916Z,4.24
2022-12-05T16:00:18.730Z,4.23
2022-12-05T16:02:45.133Z,4.23
2022-12-05T16:05:26.896Z,4.21
2022-12-05T16:07:54.294Z,4.22
2022-12-05T16:10:24.743Z,4.22
2022-12-05T16:12:54.372Z,4.23
2022-12-05T16:15:30.010Z,4.22
2022-12-05T16:17:59.365Z,4.21
2022-12-05T16:20:30.964Z,4.21
2022-12-05T16:23:04.353Z,4.20
2022-12-05T16:25:36.280Z,4.20
2022-12-05T16:28:08.459Z,4.19
2022-12-05T16:30:37.153Z,4.16
2022-12-05T16:33:08.038Z,4.14
2022-12-05T16:35:39.995Z,4.13
2022-12-05T16:38:29.694Z,4.07
2022-12-05T16:40:57.965Z,4.03
2022-12-05T16:43:31.764Z,3.99
2022-12-05T16:46:08.577Z,3.93
2022-12-05T16:48:36.146Z,3.79
2022-12-05T16:51:28.588Z,3.81
2022-12-05T16:53:56.344Z,3.77
2022-12-05T16:56:24.291Z,3.75
2022-12-05T16:58:50.886Z,3.74
2022-12-05T17:01:20.896Z,3.71
2022-12-05T17:03:47.496Z,3.74
2022-12-05T17:06:14.943Z,3.71
2022-12-05T17:08:42.331Z,3.71
2022-12-05T17:11:22.137Z,3.73
2022-12-05T17:13:49.895Z,3.72
2022-12-05T17:16:18.138Z,3.71
2022-12-05T17:18:45.010Z,3.72
2022-12-05T17:21:16.394Z,3.70
2022-12-05T17:23:47.494Z,3.71
2022-12-05T17:26:17.359Z,3.66
2022-12-05T17:28:44.061Z,3.64
2022-12-05T17:31:13.405Z,3.66
2022-12-05T17:33:39.929Z,3.66
2022-12-05T17:36:06.521Z,3.68
2022-12-05T17:38:32.911Z,3.68
2022-12-05T17:41:02.581Z,3.69
2022-12-05T17:43:32.584Z,3.71
2022-12-05T17:46:02.715Z,3.69
2022-12-05T17:48:29.583Z,3.69
2022-12-05T17:50:58.658Z,3.69
2022-12-05T17:53:25.101Z,3.65
2022-12-05T17:55:52.120Z,3.70
2022-12-05T17:58:18.627Z,3.71
2022-12-05T18:00:46.545Z,3.76
2022-12-05T18:03:15.728Z,3.74
2022-12-05T18:05:42.363Z,3.82
2022-12-05T18:08:09.285Z,3.83
2022-12-05T18:10:35.911Z,3.81
2022-12-05T18:13:02.416Z,3.85
2022-12-05T18:15:28.948Z,3.83
2022-12-05T18:17:55.537Z,3.83
2022-12-05T18:20:21.952Z,3.81
2022-12-05T18:22:48.691Z,3.82
2022-12-05T18:25:15.130Z,3.82
2022-12-05T18:27:41.540Z,3.82
2022-12-05T18:30:08.507Z,3.82
2022-12-05T18:32:35.030Z,3.82
2022-12-05T18:35:04.686Z,3.81
2022-12-05T18:37:36.607Z,3.82
2022-12-05T18:40:08.164Z,3.79
2022-12-05T18:42:35.323Z,3.78
2022-12-05T18:45:02.052Z,3.71
2022-12-05T18:47:28.564Z,3.76
2022-12-05T18:49:55.030Z,3.75
2022-12-05T18:52:21.446Z,3.79
2022-12-05T18:54:57.609Z,3.81
2022-12-05T18:57:34.342Z,3.80
2022-12-05T19:00:02.037Z,3.79
2022-12-05T19:02:29.204Z,3.78
2022-12-05T19:04:55.839Z,3.78
2022-12-05T19:07:22.442Z,3.75
2022-12-05T19:09:48.862Z,3.76
2022-12-05T19:12:15.421Z,3.74
2022-12-05T19:14:41.829Z,3.72
2022-12-05T19:17:08.258Z,3.69
2022-12-05T19:19:34.781Z,3.70
2022-12-05T19:22:02.072Z,3.70
2022-12-05T19:24:29.111Z,3.69
2022-12-05T19:26:55.598Z,3.71
2022-12-05T19:29:22.037Z,3.72
2022-12-05T19:31:49.103Z,3.72
2022-12-05T19:34:15.540Z,3.72
2022-12-05T19:36:45.975Z,3.71
2022-12-05T19:39:17.901Z,3.71
2022-12-05T19:41:45.140Z,3.71
2022-12-05T19:44:11.604Z,3.69
2022-12-05T19:46:38.497Z,3.68
2022-12-05T19:49:11.633Z,3.67
2022-12-05T19:51:38.580Z,3.67
2022-12-05T19:54:06.551Z,3.69
2022-12-05T19:56:34.813Z,3.69
2022-12-05T19:59:02.263Z,3.66
2022-12-05T20:01:30.868Z,3.69
2022-12-05T20:04:02.636Z,3.68
2022-12-05T20:06:34.214Z,3.66
2022-12-05T20:09:00.961Z,3.62
2022-12-05T20:11:29.155Z,3.67
2022-12-05T20:13:56.840Z,3.67
2022-12-05T20:16:26.660Z,3.65
2022-12-05T20:18:55.874Z,3.64
2022-12-05T20:21:22.980Z,3.61
2022-12-05T20:23:51.411Z,3.63
2022-12-05T20:26:21.214Z,3.63
2022-12-05T20:28:48.194Z,3.57
2022-12-05T20:31:19.402Z,3.58
2022-12-05T20:33:46.078Z,3.56
2022-12-05T20:36:15.077Z,3.53
2022-12-05T20:38:42.090Z,3.52
2022-12-05T20:41:15.415Z,3.50
2022-12-05T20:43:43.495Z,3.47
2022-12-05T20:46:13.323Z,3.43
2022-12-05T20:48:40.224Z,3.41
2022-12-05T20:51:12.023Z,3.41
2022-12-05T20:53:40.867Z,3.39
2022-12-05T20:56:10.194Z,3.38
2022-12-05T20:58:37.389Z,3.37
2022-12-05T21:01:09.371Z,3.35
2022-12-05T21:03:36.593Z,3.33
2022-12-05T21:06:08.434Z,3.31
2022-12-05T21:08:34.880Z,3.30
2022-12-05T21:11:01.467Z,3.31
2022-12-05T21:13:27.950Z,3.30
2022-12-05T21:15:54.484Z,3.29
2022-12-05T21:18:20.909Z,3.28
2022-12-05T21:21:02.275Z,3.25
2022-12-05T21:23:28.809Z,3.22
2022-12-05T21:25:55.747Z,3.18
2022-12-05T21:28:22.196Z,3.18
2022-12-05T21:30:48.691Z,3.16
2022-12-05T21:33:15.349Z,3.14
2022-12-05T21:35:41.872Z,3.12
2022-12-05T21:38:08.478Z,3.10
2022-12-05T21:40:34.965Z,3.07
2022-12-05T21:43:01.361Z,3.04
2022-12-05T21:45:27.941Z,3.04
2022-12-05T21:47:54.366Z,3.04
2022-12-05T21:50:20.764Z,3.01
2022-12-05T21:52:47.177Z,3.00
2022-12-05T21:55:13.618Z,2.96
2022-12-05T21:57:40.005Z,2.92
2022-12-05T22:00:08.011Z,2.90
2022-12-05T22:02:34.901Z,2.85
2022-12-05T22:05:01.692Z,2.86
2022-12-05T22:07:28.094Z,2.84
2022-12-05T22:09:54.537Z,2.80
2022-12-05T22:12:20.994Z,2.76
2022-12-05T22:14:47.404Z,2.71
2022-12-05T22:17:13.843Z,2.69
2022-12-05T22:19:40.314Z,2.64
2022-12-05T22:22:06.764Z,2.62
2022-12-05T22:24:33.206Z,2.58
2022-12-05T22:26:59.602Z,2.56
2022-12-05T22:29:26.020Z,2.55
2022-12-05T22:31:52.490Z,2.55
2022-12-05T22:34:18.932Z,2.44
2022-12-05T22:36:47.731Z,2.57
2022-12-05T22:39:14.151Z,2.57
2022-12-05T22:41:40.656Z,2.57
2022-12-05T22:44:07.092Z,2.58
2022-12-05T22:46:33.823Z,2.61
2022-12-05T22:49:03.890Z,2.63
2022-12-05T22:51:30.644Z,2.64
2022-12-05T22:53:57.112Z,2.66
2022-12-05T22:56:25.928Z,2.67
2022-12-05T22:58:57.428Z,2.69
2022-12-05T23:01:27.837Z,2.70
2022-12-05T23:03:57.404Z,2.73
2022-12-05T23:06:24.447Z,2.75
2022-12-05T23:08:51.129Z,2.75
2022-12-05T23:11:19.301Z,2.80
2022-12-05T23:13:46.995Z,2.82
2022-12-05T23:16:22.862Z,2.82
2022-12-05T23:18:51.128Z,2.83
2022-12-05T23:21:29.541Z,2.88
2022-12-05T23:23:59.625Z,2.93
2022-12-05T23:26:29.528Z,2.96
2022-12-05T23:28:56.348Z,3.02
2022-12-05T23:31:23.197Z,3.06
2022-12-05T23:33:51.635Z,3.07
2022-12-05T23:36:19.376Z,3.07
2022-12-05T23:38:46.205Z,3.03
2022-12-05T23:41:15.760Z,3.02
2022-12-05T23:43:43.118Z,3.07
2022-12-05T23:46:11.168Z,3.07
2022-12-05T23:48:37.817Z,3.09
2022-12-05T23:51:06.184Z,3.10
2022-12-05T23:53:35.229Z,3.11
2022-12-05T23:56:03.694Z,3.11
2022-12-05T23:58:31.331Z,3.11
